Flight Track Log - Related Links

Times and Time Zones

All times are in EDT time to prevent confusion due to time zone crossing. See the JZA7816 flight status page for this flight to view local times or setup timezone preferences in your user account.

Time Position Orientation Groundspeed Altitude Reporting Facility
EDT Latitude Longitude Course Direction KTS MPH feet Rate Location/Type
Mon 08:26:47 PM 46.5833 -80.8167 195° South 120 138 3,400  Level Toronto Center
Mon 08:27:46 PM 46.5500 -80.8167 180° South 140 161 5,300 1,300 Climbing Toronto Center
Mon 08:28:47 PM 46.5000 -80.8167 180° South 170 196 6,000 645 Climbing Toronto Center
Mon 08:29:47 PM 46.4333 -80.8000 170° South 230 265 6,600 650 Climbing Toronto Center
Mon 08:30:00 PM 46.2704 -80.6515 167° South  Level Estimated
Mon 08:30:47 PM 46.3667 -80.7667 161° South 240 276 7,300  Level Toronto Center
Mon 08:31:00 PM 46.1995 -80.6223 172° South  Level Estimated
Mon 08:31:47 PM 46.3000 -80.7667 180° South 240 276 8,000  Level Toronto Center
Mon 08:32:00 PM 46.1282 -80.6496 195° South  Level FlightAware Approximate
Mon 08:32:46 PM 46.2333 -80.7333 161° South 240 276 8,900  Level Toronto Center
Mon 08:33:46 PM 46.1667 -80.7167 170° South 240 276 9,500 650 Climbing Toronto Center
Mon 08:34:46 PM 46.1000 -80.6833 161° South 240 276 10,200 694 Climbing Toronto Center
Mon 08:35:47 PM 46.0333 -80.6833 180° South 240 276 10,900 645 Climbing Toronto Center
Mon 08:36:47 PM 45.9667 -80.6667 170° South 240 276 11,500 555 Climbing Toronto Center
Mon 08:37:46 PM 45.9000 -80.6333 161° South 240 276 12,000 504 Climbing Toronto Center
Mon 08:38:46 PM 45.8500 -80.6167 167° South 250 288 12,500 550 Climbing Toronto Center
Mon 08:39:46 PM 45.7667 -80.5833 164° South 250 288 13,100 600 Climbing Toronto Center
Mon 08:40:46 PM 45.7000 -80.5667 170° South 250 288 13,700 595 Climbing Toronto Center
Mon 08:41:47 PM 45.6333 -80.5333 161° South 250 288 14,300 500 Climbing Toronto Center
Mon 08:42:46 PM 45.5667 -80.5167 170° South 250 288 14,700 454 Climbing Toronto Center
Mon 08:43:46 PM 45.5000 -80.4833 161° South 250 288 15,200 450 Climbing Toronto Center
Mon 08:44:46 PM 45.4333 -80.4667 170° South 250 288 15,600 400 Climbing Toronto Center
Mon 08:45:46 PM 45.3667 -80.4333 161° South 250 288 16,000 397 Climbing Toronto Center
Mon 08:46:47 PM 45.3000 -80.4167 170° South 260 299 16,400 397 Climbing Toronto Center
Mon 08:47:47 PM 45.2167 -80.3833 164° South 260 299 16,800 303 Climbing Toronto Center
Mon 08:48:46 PM 45.1500 -80.3667 170° South 260 299 17,000 151 Climbing Toronto Center
Mon 08:49:46 PM 45.0833 -80.3333 161° South 270 311 17,100  Climbing Toronto Center
Mon 08:50:46 PM 45.0000 -80.3167 172° South 270 311 17,000  Descending Toronto Center
Mon 08:51:47 PM 44.9333 -80.3000 170° South 270 311 17,100 50 Climbing Toronto Center
Mon 08:52:47 PM 44.8667 -80.2667 160° South 270 311 17,100  Level Toronto Center
Mon 08:53:47 PM 44.7833 -80.2500 172° South 270 311 17,100 -50 Level Toronto Center
Mon 08:54:47 PM 44.7167 -80.2167 160° South 270 311 17,000 -50 Descending Toronto Center
Mon 08:55:47 PM 44.6500 -80.2000 170° South 270 311 17,000 -50 Level Toronto Center
Mon 08:56:47 PM 44.5667 -80.1667 164° South 270 311 16,900 -550 Descending Toronto Center
Mon 08:57:47 PM 44.5000 -80.1500 170° South 280 322 15,900 -1,100 Descending Toronto Center
Mon 08:58:47 PM 44.4000 -80.1167 167° South 300 345 14,700 -1,150 Descending Toronto Center
Mon 08:59:47 PM 44.3333 -80.1000 170° South 310 357 13,600 -1,100 Descending Toronto Center
Mon 09:00:47 PM 44.2500 -80.0500 157° South 310 357 12,500 -1,100 Descending Toronto Center
Mon 09:01:47 PM 44.1667 -80.0333 172° South 300 345 11,400 -1,100 Descending Toronto Center
Mon 09:02:47 PM 44.0833 -80.0000 164° South 300 345 10,300 -1,100 Descending Toronto Center
Mon 09:03:47 PM 44.0000 -79.9833 172° South 290 334 9,200 -650 Descending Toronto Center
Mon 09:04:47 PM 43.9333 -79.9333 152° Southeast 280 322 9,000 -100 Descending Toronto Center
Mon 09:05:47 PM 43.8833 -79.8667 136° Southeast 260 299 9,000  Level Toronto Center
Mon 09:06:47 PM 43.8333 -79.8000 136° Southeast 260 299 9,000  Level Toronto Center
Mon 09:07:47 PM 43.7667 -79.7500 152° Southeast 260 299 9,000 -700 Level Toronto Center
Mon 09:08:47 PM 43.7667 -79.6500 90° East 220 253 7,600 -1,350 Descending Toronto Center
Mon 09:09:47 PM 43.8167 -79.6167 26° Northeast 230 265 6,300 -1,300 Descending Toronto Center
Mon 09:10:47 PM 43.8500 -79.5167 65° Northeast 230 265 5,000 -1,350 Descending Toronto Center
Mon 09:11:47 PM 43.8167 -79.4667 133° Southeast 230 265 3,600 -1,000 Descending Toronto Center
Mon 09:12:47 PM 43.7667 -79.5000 206° Southwest 190 219 3,000 -850 Descending Toronto Center
Mon 09:13:47 PM 43.7333 -79.5333 216° Southwest 180 207 1,900 -950 Descending Toronto Center
Mon 09:14:47 PM 43.7000 -79.5833 227° Southwest 160 184 1,100 -650 Descending Toronto Center
Mon 09:15:47 PM 43.6833 -79.6167 235° Southwest 110 127 600 -250 Descending Toronto Center
Mon 09:16:47 PM 43.6833 -79.6333 270° West 30 35 600  Level Toronto Center
Mon 09:17:47 PM 43.6833 -79.6167 90° East 20 23 600  Level Toronto Center

Login

Don't have an account? Register now (free) for customized features, flight alerts, and more!